Lake Monroe, Florida
Current Conditions -  °F | °C
As of 2:53 PM on Saturday 25 Oct 2014 (Local Time) from KSFB Reporting Station
Clear Clear  
Wind Chill: 80°   Ceiling: Unl
Heat Index: 80°   Visibility: 10mi
Dew Point: 54°   Wind: 3mph
Humidity: 40%   Direction: NA
Pressure: 29.94"   Gusts: NA
Location:  28.83°N, 81.33°W
Report Text: KSFB 251853Z VRB03KT 10SM CLR 27/12 A2994 RMK AO2 SLP138 T02670122
Loading
Personal Weather Stations






























Interactive Weather Map
Tropical Storm Tracking
New forecast layout! Learn more

10-Day Weather Forecast

Advertisements
Track Severe Weather on mobile